Time;durP1;ratioP1;P1;durP2;ratioP2;P2;SDS_P1;SDS_P2;PMS_P1;PMS_P2;Temp;Humidity;BMP_temperature;BMP_pressure;BME280_temperature;BME280_humidity;BME280_pressure;Samples;Min_cycle;Max_cycle;Signal;HPM_P1;HPM_P2
2022/01/31 00:01:59;;;;;;;;;;;;;;;-1.64;85.30;96842.16;5011714;28;19987;-79
2022/01/31 00:04:25;;;;;;;;;;;;;;;-1.60;85.11;96840.47;5013564;28;19925;-80
2022/01/31 00:06:50;;;;;;;;;;;;;;;-1.63;85.28;96836.22;5045648;28;19913;-79
2022/01/31 00:09:17;;;;;;;;;;;;;;;-1.64;85.19;96824.38;5011583;28;19974;-80
2022/01/31 00:11:46;;;;;;;;;;;;;;;-1.61;85.55;96831.13;5045271;28;19913;-79
2022/01/31 00:14:28;;;;;;;;;;;;;;;-1.64;85.32;96826.91;5012629;28;19925;-79
2022/01/31 00:16:54;;;;;;;;;;;;;;;-1.60;85.53;96827.75;5027257;28;19917;-79
2022/01/31 00:19:19;;;;;;;;;;;;;;;-1.58;85.81;96831.97;5013361;28;19913;-79
2022/01/31 00:21:45;;;;;;;;;;;;;;;-1.57;85.51;96831.13;5013543;28;19924;-79
2022/01/31 00:24:11;;;;;;;;;;;;;;;-1.55;85.80;96831.97;5013338;28;20335;-80
2022/01/31 00:26:36;;;;;;;;;;;;;;;-1.58;85.86;96834.50;5005589;28;19921;-80
2022/01/31 00:29:02;;;;;;;;;;;;;;;-1.55;86.14;96823.50;5037589;28;20003;-81
2022/01/31 00:31:27;;;;;;;;;;;;;;;-1.53;86.37;96819.25;5044983;28;19917;-78
2022/01/31 00:33:52;;;;;;;;;;;;;;;-1.51;86.53;96815.03;5013323;28;20004;-79
2022/01/31 00:36:18;;;;;;;;;;;;;;;-1.52;86.34;96820.94;5045219;28;20361;-78
2022/01/31 00:38:43;;;;;;;;;;;;;;;-1.47;86.29;96818.38;5044870;28;20009;-78
2022/01/31 00:41:09;;;;;;;;;;;;;;;-1.48;86.23;96822.63;5044797;28;19924;-78
2022/01/31 00:43:37;;;;;;;;;;;;;;;-1.50;86.59;96814.16;5013131;28;20268;-78
2022/01/31 00:46:09;;;;;;;;;;;;;;;-1.48;86.76;96822.63;5027655;28;19917;-79
2022/01/31 00:48:41;;;;;;;;;;;;;;;-1.49;85.91;96820.94;5044831;28;20013;-78
2022/01/31 00:51:07;;;;;;;;;;;;;;;-1.44;86.40;96823.47;5012954;28;19952;-78
2022/01/31 00:53:32;;;;;;;;;;;;;;;-1.50;86.41;96826.88;5028376;28;19913;-78
2022/01/31 00:55:58;;;;;;;;;;;;;;;-1.50;86.38;96828.59;5012987;28;19918;-79
2022/01/31 00:58:23;;;;;;;;;;;;;;;-1.55;86.16;96824.34;5044953;28;19967;-79
2022/01/31 01:00:49;;;;;;;;;;;;;;;-1.57;86.31;96820.09;5023361;28;19918;-78
2022/01/31 01:03:14;;;;;;;;;;;;;;;-1.56;86.46;96819.25;5027946;28;19936;-78
2022/01/31 01:05:40;;;;;;;;;;;;;;;-1.57;86.93;96823.50;5044541;28;19925;-79
2022/01/31 01:08:05;;;;;;;;;;;;;;;-1.55;86.75;96824.34;5011489;28;20434;-79
2022/01/31 01:10:31;;;;;;;;;;;;;;;-1.57;86.80;96822.66;5012703;28;19926;-79
2022/01/31 01:12:56;;;;;;;;;;;;;;;-1.55;86.98;96814.19;5047781;28;19995;-79
2022/01/31 01:15:22;;;;;;;;;;;;;;;-1.52;87.22;96817.56;5048518;28;19955;-79
2022/01/31 01:17:47;;;;;;;;;;;;;;;-1.55;86.83;96821.81;5016966;28;20356;-79
2022/01/31 01:20:15;;;;;;;;;;;;;;;-1.53;86.57;96809.09;5031819;28;19918;-79
2022/01/31 01:22:41;;;;;;;;;;;;;;;-1.51;87.02;96814.16;5048503;28;19921;-79
2022/01/31 01:25:08;;;;;;;;;;;;;;;-1.42;87.14;96819.22;5048491;28;19924;-79
2022/01/31 01:27:33;;;;;;;;;;;;;;;-1.38;86.72;96815.81;5048948;28;19965;-80
2022/01/31 01:29:59;;;;;;;;;;;;;;;-1.39;86.72;96811.59;5064980;28;19921;-79
2022/01/31 01:32:28;;;;;;;;;;;;;;;-1.38;87.00;96813.28;5048152;28;20339;-80
2022/01/31 01:34:59;;;;;;;;;;;;;;;-1.38;86.85;96818.38;5031269;28;19918;-79
2022/01/31 01:37:25;;;;;;;;;;;;;;;-1.39;86.88;96814.13;5048427;28;20396;-80
2022/01/31 01:39:50;;;;;;;;;;;;;;;-1.42;86.92;96811.59;5015333;28;19939;-79
2022/01/31 01:42:16;;;;;;;;;;;;;;;-1.42;86.85;96809.91;5031603;28;19921;-79
2022/01/31 01:44:45;;;;;;;;;;;;;;;-1.39;86.91;96809.06;5048601;28;19920;-79
2022/01/31 01:47:16;;;;;;;;;;;;;;;-1.38;86.95;96803.09;5016080;28;20371;-79
2022/01/31 01:49:42;;;;;;;;;;;;;;;-1.39;86.52;96812.44;5048081;28;19980;-79
2022/01/31 01:52:08;;;;;;;;;;;;;;;-1.34;87.00;96804.78;5014995;28;19941;-79
2022/01/31 01:54:33;;;;;;;;;;;;;;;-1.36;86.69;96811.59;5047785;28;19925;-79
2022/01/31 01:56:59;;;;;;;;;;;;;;;-1.36;86.57;96814.13;5048254;28;20296;-79
2022/01/31 01:59:25;;;;;;;;;;;;;;;-1.39;86.54;96806.50;5048074;28;19924;-79
2022/01/31 02:02:10;;;;;;;;;;;;;;;-1.36;86.38;96809.91;5028840;28;19967;-80
2022/01/31 02:04:35;;;;;;;;;;;;;;;-1.35;86.76;96809.03;5048057;28;19946;-79
2022/01/31 02:07:03;;;;;;;;;;;;;;;-1.33;86.37;96809.03;5048085;28;19921;-79
2022/01/31 02:09:30;;;;;;;;;;;;;;;-1.35;86.83;96803.09;5031182;28;19929;-80
2022/01/31 02:11:57;;;;;;;;;;;;;;;-1.31;86.69;96799.72;5031063;28;19968;-79
2022/01/31 02:14:23;;;;;;;;;;;;;;;-1.34;86.74;96802.25;5031127;28;20733;-79
2022/01/31 02:17:07;;;;;;;;;;;;;;;-1.31;86.88;96804.78;5016060;28;19920;-79
2022/01/31 02:19:39;;;;;;;;;;;;;;;-1.29;86.72;96809.00;5047846;28;19948;-79
2022/01/31 02:22:15;;;;;;;;;;;;;;;-1.27;86.70;96806.47;5047283;28;19954;-79
2022/01/31 02:24:59;;;;;;;;;;;;;;;-1.28;86.51;96812.44;5042093;28;19944;-79
2022/01/31 02:27:53;;;;;;;;;;;;;;;-1.26;86.88;96813.25;5026370;28;20317;-80
2022/01/31 02:30:19;;;;;;;;;;;;;;;-1.25;86.99;96825.09;5030470;28;19921;-80
2022/01/31 02:32:46;;;;;;;;;;;;;;;-1.25;87.34;96817.47;5030552;28;19913;-79
2022/01/31 02:35:11;;;;;;;;;;;;;;;-1.25;87.41;96817.47;5015375;28;19924;-79
2022/01/31 02:37:37;;;;;;;;;;;;;;;-1.26;87.30;96815.78;5047026;28;19964;-80
2022/01/31 02:40:12;;;;;;;;;;;;;;;-1.25;87.33;96814.94;5029510;28;20332;-79
2022/01/31 02:42:38;;;;;;;;;;;;;;;-1.24;87.18;96813.22;5030299;28;19924;-77
2022/01/31 02:45:05;;;;;;;;;;;;;;;-1.24;87.30;96814.06;5014318;28;19913;-79
2022/01/31 02:47:37;;;;;;;;;;;;;;;-1.23;87.54;96808.16;5046977;28;20048;-79
2022/01/31 02:50:06;;;;;;;;;;;;;;;-1.23;87.52;96807.31;5046985;28;19971;-79
2022/01/31 02:52:34;;;;;;;;;;;;;;;-1.21;87.93;96813.22;5014945;28;19913;-79
2022/01/31 02:55:01;;;;;;;;;;;;;;;-1.20;87.63;96799.66;5029947;28;19917;-79
2022/01/31 02:57:27;;;;;;;;;;;;;;;-1.27;87.36;96805.63;5030153;28;20668;-80
2022/01/31 02:59:52;;;;;;;;;;;;;;;-1.28;87.27;96799.72;5015055;28;19917;-79
2022/01/31 03:02:21;;;;;;;;;;;;;;;-1.31;87.55;96799.72;5046702;28;20687;-79
2022/01/31 03:04:46;;;;;;;;;;;;;;;-1.27;87.36;96791.22;5014955;28;20004;-79
2022/01/31 03:07:12;;;;;;;;;;;;;;;-1.26;87.40;96786.97;4998536;28;19918;-79
2022/01/31 03:09:38;;;;;;;;;;;;;;;-1.30;86.89;96791.22;5026630;28;19921;-79
2022/01/31 03:12:08;;;;;;;;;;;;;;;-1.25;87.58;96789.50;5026412;28;20307;-79
2022/01/31 03:14:40;;;;;;;;;;;;;;;-1.25;87.02;96784.41;5026950;28;20285;-79
2022/01/31 03:17:13;;;;;;;;;;;;;;;-1.24;87.01;96785.25;5026740;28;20003;-79
2022/01/31 03:19:40;;;;;;;;;;;;;;;-1.25;87.24;96783.56;5045157;28;19995;-79
2022/01/31 03:22:06;;;;;;;;;;;;;;;-1.25;87.39;96781.88;5029709;28;19917;-79
2022/01/31 03:24:32;;;;;;;;;;;;;;;-1.26;86.81;96784.44;5046029;28;19917;-79
2022/01/31 03:26:58;;;;;;;;;;;;;;;-1.23;87.14;96790.38;5014869;28;19920;-79
2022/01/31 03:29:24;;;;;;;;;;;;;;;-1.21;87.28;96786.09;5029417;28;19918;-79
2022/01/31 03:31:49;;;;;;;;;;;;;;;-1.17;86.84;96797.13;5026511;28;19983;-79
2022/01/31 03:34:15;;;;;;;;;;;;;;;-1.21;86.79;96793.72;5029485;28;20368;-79
2022/01/31 03:36:42;;;;;;;;;;;;;;;-1.22;87.24;96786.97;5019835;28;19914;-78
2022/01/31 03:39:11;;;;;;;;;;;;;;;-1.28;86.67;96794.63;5045732;28;20321;-79
2022/01/31 03:41:38;;;;;;;;;;;;;;;-1.24;87.10;96790.34;5046533;28;20335;-79
2022/01/31 03:44:04;;;;;;;;;;;;;;;-1.23;87.27;96790.38;5029360;28;19967;-79
2022/01/31 03:46:33;;;;;;;;;;;;;;;-1.22;87.26;96796.28;5029043;28;19913;-78
2022/01/31 03:48:59;;;;;;;;;;;;;;;-1.21;87.45;96790.34;4993948;28;19948;-79
2022/01/31 03:51:44;;;;;;;;;;;;;;;-1.17;87.50;96800.50;5026133;28;20332;-79
2022/01/31 03:54:13;;;;;;;;;;;;;;;-1.17;87.36;96792.88;5008641;28;19932;-78
2022/01/31 03:56:39;;;;;;;;;;;;;;;-1.12;87.36;96790.31;5025763;28;19913;-78
2022/01/31 03:59:18;;;;;;;;;;;;;;;-1.15;87.05;96796.25;5007633;28;19917;-78
2022/01/31 04:01:44;;;;;;;;;;;;;;;-1.12;87.11;96783.50;5039682;28;19917;-78
2022/01/31 04:04:10;;;;;;;;;;;;;;;-1.13;86.96;96786.91;5012418;28;20011;-79
2022/01/31 04:06:39;;;;;;;;;;;;;;;-1.17;86.87;96795.41;5013960;28;20408;-79
2022/01/31 04:09:04;;;;;;;;;;;;;;;-1.15;86.91;96795.41;5045849;28;20048;-79
2022/01/31 04:11:30;;;;;;;;;;;;;;;-1.16;87.05;96793.72;5013311;28;20409;-78
2022/01/31 04:13:55;;;;;;;;;;;;;;;-1.17;87.14;96800.50;5045558;28;20415;-79
2022/01/31 04:16:20;;;;;;;;;;;;;;;-1.18;86.79;96803.91;5006760;28;19921;-78
2022/01/31 04:18:46;;;;;;;;;;;;;;;-1.17;87.06;96802.19;4994358;28;20365;-79
2022/01/31 04:21:13;;;;;;;;;;;;;;;-1.15;86.98;96796.25;4993823;28;19988;-79
2022/01/31 04:23:38;;;;;;;;;;;;;;;-1.19;87.02;96803.88;5025501;28;20059;-80
2022/01/31 04:26:22;;;;;;;;;;;;;;;-1.18;86.92;96805.59;4994340;28;20020;-79
2022/01/31 04:28:50;;;;;;;;;;;;;;;-1.19;87.01;96801.34;5010124;28;20731;-79
2022/01/31 04:33:45;;;;;;;;;;;;;;;-1.22;86.94;96802.22;5013205;28;20052;-78
2022/01/31 04:36:10;;;;;;;;;;;;;;;-1.21;87.08;96795.44;5013266;28;20443;-78
2022/01/31 04:38:36;;;;;;;;;;;;;;;-1.21;87.10;96800.53;5045211;28;19945;-78
2022/01/31 04:41:02;;;;;;;;;;;;;;;-1.18;87.14;96801.34;5028719;28;19920;-78
2022/01/31 04:43:27;;;;;;;;;;;;;;;-1.18;87.05;96795.44;5013666;28;20020;-79
2022/01/31 04:45:55;;;;;;;;;;;;;;;-1.19;87.33;96791.16;5013316;28;19920;-79
2022/01/31 04:48:21;;;;;;;;;;;;;;;-1.17;87.00;96799.66;5012749;28;19925;-79
2022/01/31 04:50:46;;;;;;;;;;;;;;;-1.17;86.83;96790.31;5013090;28;20253;-78
2022/01/31 04:53:12;;;;;;;;;;;;;;;-1.18;86.96;96791.19;5045340;28;19917;-79
2022/01/31 04:55:37;;;;;;;;;;;;;;;-1.18;86.73;96791.19;5013294;28;19952;-78
2022/01/31 04:58:03;;;;;;;;;;;;;;;-1.17;87.04;96792.88;5044912;28;19917;-79
2022/01/31 05:00:28;;;;;;;;;;;;;;;-1.17;86.79;96797.97;5009675;28;19945;-80
2022/01/31 05:02:54;;;;;;;;;;;;;;;-1.15;86.87;96796.25;5005529;28;19983;-82
2022/01/31 05:05:20;;;;;;;;;;;;;;;-1.19;86.84;96789.50;5044293;28;19921;-80
2022/01/31 05:07:45;;;;;;;;;;;;;;;-1.21;86.71;96791.19;5011575;28;19917;-82
2022/01/31 05:10:11;;;;;;;;;;;;;;;-1.18;86.95;96798.81;5027485;28;19921;-80
2022/01/31 05:12:36;;;;;;;;;;;;;;;-1.14;87.30;96802.19;5009234;28;20020;-79
2022/01/31 05:15:01;;;;;;;;;;;;;;;-1.11;87.44;96790.28;5011728;28;19913;-80
2022/01/31 05:17:27;;;;;;;;;;;;;;;-1.08;87.31;96790.28;5012733;28;20452;-78
2022/01/31 05:19:52;;;;;;;;;;;;;;;-1.09;87.09;96798.78;5013658;28;19971;-80
2022/01/31 05:22:18;;;;;;;;;;;;;;;-1.09;87.17;96798.78;5012129;28;19968;-79
2022/01/31 05:24:43;;;;;;;;;;;;;;;-1.10;86.84;96786.91;5012998;28;19917;-78
2022/01/31 05:27:09;;;;;;;;;;;;;;;-1.07;86.61;96793.66;5012943;28;20359;-77
2022/01/31 05:29:34;;;;;;;;;;;;;;;-1.09;87.13;96790.31;5013137;28;19917;-78
2022/01/31 05:32:00;;;;;;;;;;;;;;;-1.12;86.60;96790.31;5012752;28;19921;-81
2022/01/31 05:34:25;;;;;;;;;;;;;;;-1.13;86.83;96789.47;5013208;28;19920;-76
2022/01/31 05:36:54;;;;;;;;;;;;;;;-1.10;87.34;96781.84;5012722;28;19924;-77
2022/01/31 05:39:21;;;;;;;;;;;;;;;-1.07;87.18;96784.34;5012604;28;19921;-78
2022/01/31 05:41:46;;;;;;;;;;;;;;;-1.05;87.09;96787.75;5012817;28;20028;-78
2022/01/31 05:44:12;;;;;;;;;;;;;;;-1.02;87.07;96791.94;5044716;28;20030;-79
2022/01/31 05:46:37;;;;;;;;;;;;;;;-1.02;87.04;96786.88;5012942;28;19917;-77
2022/01/31 05:49:03;;;;;;;;;;;;;;;-1.05;87.02;96790.28;5044493;28;19917;-78
2022/01/31 05:51:28;;;;;;;;;;;;;;;-0.98;86.96;96792.78;5044682;28;20399;-79
2022/01/31 05:53:54;;;;;;;;;;;;;;;-0.99;86.85;96793.66;5011590;28;20024;-78
2022/01/31 05:56:19;;;;;;;;;;;;;;;-0.99;86.95;96793.66;5044504;28;19917;-79
2022/01/31 05:58:45;;;;;;;;;;;;;;;-0.99;86.30;96797.03;5045375;28;19917;-79
2022/01/31 06:01:10;;;;;;;;;;;;;;;-0.99;86.71;96801.28;5016089;28;19963;-77
2022/01/31 06:03:37;;;;;;;;;;;;;;;-0.96;86.71;96797.03;5016077;28;19918;-78
2022/01/31 06:06:03;;;;;;;;;;;;;;;-0.97;86.80;96805.50;5015755;28;20273;-78
2022/01/31 06:08:28;;;;;;;;;;;;;;;-0.96;86.81;96802.13;5014420;28;19917;-79
2022/01/31 06:10:54;;;;;;;;;;;;;;;-0.93;86.81;96801.25;5015558;28;20319;-79
2022/01/31 06:13:30;;;;;;;;;;;;;;;-0.91;86.88;96799.56;5031063;28;19913;-78
2022/01/31 06:15:55;;;;;;;;;;;;;;;-0.89;86.75;96800.38;5014594;28;20372;-78
2022/01/31 06:18:20;;;;;;;;;;;;;;;-0.88;86.62;96790.19;5015874;28;19920;-78
2022/01/31 06:20:46;;;;;;;;;;;;;;;-0.85;86.31;96792.72;5047631;28;20019;-78
2022/01/31 06:23:11;;;;;;;;;;;;;;;-0.82;86.14;96794.41;5047886;28;19920;-79
2022/01/31 06:25:37;;;;;;;;;;;;;;;-0.78;86.78;96799.50;5031492;28;19921;-80
2022/01/31 06:28:05;;;;;;;;;;;;;;;-0.79;86.19;96794.38;5031366;28;19913;-79
2022/01/31 06:30:30;;;;;;;;;;;;;;;-0.78;86.19;96790.97;5030421;28;19972;-78
2022/01/31 06:32:56;;;;;;;;;;;;;;;-0.80;86.01;96802.88;5031133;28;19917;-79
2022/01/31 06:35:22;;;;;;;;;;;;;;;-0.78;86.25;96791.84;5047466;28;19955;-78
2022/01/31 06:37:48;;;;;;;;;;;;;;;-0.75;86.17;96793.50;5015106;28;20294;-78
2022/01/31 06:40:13;;;;;;;;;;;;;;;-0.74;86.20;96791.81;5047213;28;19917;-78
2022/01/31 06:42:38;;;;;;;;;;;;;;;-0.69;86.10;96785.00;5030553;28;20297;-79
2022/01/31 06:45:04;;;;;;;;;;;;;;;-0.70;86.10;96784.16;5047314;28;20368;-79
2022/01/31 06:47:30;;;;;;;;;;;;;;;-0.70;85.58;96784.16;5015527;28;19917;-80
2022/01/31 06:49:55;;;;;;;;;;;;;;;-0.68;86.28;96776.53;5015203;28;20431;-78
2022/01/31 06:52:21;;;;;;;;;;;;;;;-0.63;86.25;96783.28;5027689;28;19913;-79
2022/01/31 06:54:50;;;;;;;;;;;;;;;-0.60;85.99;96775.59;5043722;28;19924;-79
2022/01/31 06:57:16;;;;;;;;;;;;;;;-0.57;85.45;96767.94;4994343;28;20277;-79
2022/01/31 06:59:42;;;;;;;;;;;;;;;-0.57;85.53;96762.84;5010175;28;20012;-77
2022/01/31 07:02:07;;;;;;;;;;;;;;;-0.64;84.88;96776.50;4995933;28;19936;-79
2022/01/31 07:04:33;;;;;;;;;;;;;;;-0.60;85.66;96760.31;5043616;28;19937;-77
2022/01/31 07:06:58;;;;;;;;;;;;;;;-0.56;85.64;96768.78;4995617;28;19921;-79
2022/01/31 07:09:24;;;;;;;;;;;;;;;-0.55;85.45;96767.91;5042912;28;19940;-79
2022/01/31 07:11:52;;;;;;;;;;;;;;;-0.56;85.30;96764.53;5026406;28;19968;-80
2022/01/31 07:14:30;;;;;;;;;;;;;;;-0.52;85.59;96773.00;5026042;28;19925;-79
2022/01/31 07:16:56;;;;;;;;;;;;;;;-0.54;85.34;96756.91;4995057;28;20335;-79
2022/01/31 07:19:25;;;;;;;;;;;;;;;-0.56;84.67;96764.53;4995078;28;19964;-79
2022/01/31 07:21:51;;;;;;;;;;;;;;;-0.49;85.56;96752.63;5025655;28;19917;-80
2022/01/31 07:26:48;;;;;;;;;;;;;;;-0.40;84.85;96746.63;5024808;28;20392;-82
2022/01/31 07:29:13;;;;;;;;;;;;;;;-0.38;84.91;96744.91;5026528;28;19921;-79
2022/01/31 07:31:39;;;;;;;;;;;;;;;-0.35;84.45;96748.28;4993992;28;19972;-80
2022/01/31 07:34:05;;;;;;;;;;;;;;;-0.38;83.94;96745.75;4994129;28;19928;-79
2022/01/31 07:36:31;;;;;;;;;;;;;;;-0.32;84.44;96744.84;5025924;28;19972;-78
2022/01/31 07:38:56;;;;;;;;;;;;;;;-0.27;84.38;96738.03;5043604;28;19913;-79
2022/01/31 07:41:23;;;;;;;;;;;;;;;-0.27;84.24;96735.47;5045776;28;20419;-78
2022/01/31 07:43:48;;;;;;;;;;;;;;;-0.28;84.50;96738.88;5013837;28;20396;-78
2022/01/31 07:46:14;;;;;;;;;;;;;;;-0.24;84.36;96742.25;5028825;28;20012;-78
2022/01/31 07:48:39;;;;;;;;;;;;;;;-0.27;84.24;96738.03;5045948;28;20017;-78
2022/01/31 07:51:05;;;;;;;;;;;;;;;-0.25;84.25;96736.31;5045477;28;19929;-78
2022/01/31 07:53:31;;;;;;;;;;;;;;;-0.19;84.63;96732.84;5013509;28;19920;-80
2022/01/31 07:55:56;;;;;;;;;;;;;;;-0.16;84.02;96737.94;5012447;28;19921;-79
2022/01/31 07:58:22;;;;;;;;;;;;;;;-0.23;84.09;96737.13;5045866;28;20366;-81
2022/01/31 08:00:47;;;;;;;;;;;;;;;-0.18;84.03;96735.41;5013737;28;19924;-79
2022/01/31 08:03:13;;;;;;;;;;;;;;;-0.13;84.00;96737.91;5045398;28;19984;-79
2022/01/31 08:05:39;;;;;;;;;;;;;;;-0.08;83.96;96729.34;5045518;28;19922;-79
2022/01/31 08:08:04;;;;;;;;;;;;;;;-0.01;83.98;96732.69;5045647;28;20018;-81
2022/01/31 08:10:31;;;;;;;;;;;;;;;-0.02;83.56;96738.66;5013684;28;20304;-79
2022/01/31 08:12:58;;;;;;;;;;;;;;;0.05;83.63;96736.91;5013673;28;20008;-78
2022/01/31 08:15:27;;;;;;;;;;;;;;;0.13;83.62;96737.66;5013849;28;20036;-79
2022/01/31 08:17:53;;;;;;;;;;;;;;;0.19;83.04;96737.59;5013988;28;20031;-82
2022/01/31 08:20:18;;;;;;;;;;;;;;;0.23;82.77;96736.72;5013474;28;19959;-79
2022/01/31 08:22:44;;;;;;;;;;;;;;;0.27;82.78;96733.25;5044825;28;20435;-79
2022/01/31 08:25:14;;;;;;;;;;;;;;;0.31;82.99;96732.34;5045461;28;20791;-77
2022/01/31 08:27:42;;;;;;;;;;;;;;;0.31;82.39;96727.25;5013375;28;20432;-80
2022/01/31 08:30:12;;;;;;;;;;;;;;;0.37;82.26;96732.31;5013323;28;19964;-79
2022/01/31 08:32:44;;;;;;;;;;;;;;;0.35;82.52;96731.47;5028008;28;20444;-78
2022/01/31 08:37:55;;;;;;;;;;;;;;;0.56;82.33;96721.91;5013245;28;19924;-79
2022/01/31 08:40:20;;;;;;;;;;;;;;;0.56;81.64;96722.75;5028161;28;20245;-78
2022/01/31 08:42:46;;;;;;;;;;;;;;;0.70;81.57;96723.41;5012866;28;20498;-78
2022/01/31 08:45:11;;;;;;;;;;;;;;;0.83;81.98;96719.00;5012990;28;19917;-79
2022/01/31 08:47:41;;;;;;;;;;;;;;;0.89;81.43;96711.28;5044645;28;19925;-78
2022/01/31 08:50:07;;;;;;;;;;;;;;;0.91;80.61;96719.72;5012922;28;19921;-80
2022/01/31 08:52:32;;;;;;;;;;;;;;;0.94;80.81;96714.59;5012801;28;19918;-79
2022/01/31 08:54:58;;;;;;;;;;;;;;;0.97;80.55;96709.47;5012946;28;19940;-78
2022/01/31 08:57:23;;;;;;;;;;;;;;;0.94;79.84;96704.38;5044582;28;20372;-78
2022/01/31 08:59:51;;;;;;;;;;;;;;;0.90;79.55;96715.50;5012772;28;19914;-78
2022/01/31 09:02:18;;;;;;;;;;;;;;;0.94;79.73;96709.50;5012857;28;19922;-78
2022/01/31 09:04:51;;;;;;;;;;;;;;;0.94;79.38;96699.28;5043885;28;19921;-77
2022/01/31 09:07:18;;;;;;;;;;;;;;;0.89;79.79;96705.31;5013120;28;20475;-79
2022/01/31 09:09:44;;;;;;;;;;;;;;;0.87;79.58;96702.81;5044401;28;20288;-79
2022/01/31 09:12:10;;;;;;;;;;;;;;;0.84;78.83;96702.00;5044529;28;19917;-79
2022/01/31 09:14:36;;;;;;;;;;;;;;;0.82;80.06;96707.09;5044562;28;19917;-79
2022/01/31 09:17:02;;;;;;;;;;;;;;;0.78;79.47;96708.03;5028077;28;20299;-80
2022/01/31 09:19:27;;;;;;;;;;;;;;;0.77;79.80;96709.72;5012631;28;20000;-79
2022/01/31 09:21:53;;;;;;;;;;;;;;;0.73;79.49;96700.44;5012766;28;20377;-78
2022/01/31 09:24:19;;;;;;;;;;;;;;;0.68;79.36;96711.53;5027935;28;19913;-80
2022/01/31 09:26:46;;;;;;;;;;;;;;;0.71;79.44;96701.31;5044516;28;19948;-79
2022/01/31 09:29:12;;;;;;;;;;;;;;;0.73;80.05;96709.75;5012566;28;20332;-78
2022/01/31 09:31:37;;;;;;;;;;;;;;;0.72;80.06;96708.09;5043962;28;20388;-77
2022/01/31 09:34:04;;;;;;;;;;;;;;;0.64;79.67;96710.75;5047282;28;20004;-80
2022/01/31 09:36:29;;;;;;;;;;;;;;;0.65;79.86;96709.88;5031851;28;20004;-78
2022/01/31 09:38:55;;;;;;;;;;;;;;;0.61;79.37;96705.69;5016588;28;20419;-79
2022/01/31 09:41:24;;;;;;;;;;;;;;;0.68;79.57;96707.28;5048810;28;19943;-78
2022/01/31 09:48:55;;;;;;;;;;;;;;;0.74;80.30;96698.72;5045011;28;20017;-78
2022/01/31 09:51:21;;;;;;;;;;;;;;;0.75;80.39;96702.94;5048301;28;19921;-79
2022/01/31 09:53:48;;;;;;;;;;;;;;;0.80;80.25;96701.19;5048141;28;19924;-79
2022/01/31 09:56:14;;;;;;;;;;;;;;;0.85;80.10;96694.31;5016172;28;20344;-82
2022/01/31 09:58:40;;;;;;;;;;;;;;;0.86;79.51;96706.19;5048105;28;20320;-79
2022/01/31 10:01:07;;;;;;;;;;;;;;;0.85;79.39;96704.50;5015792;28;19917;-79
2022/01/31 10:03:33;;;;;;;;;;;;;;;0.90;79.49;96701.91;5015903;28;19917;-79
2022/01/31 10:05:58;;;;;;;;;;;;;;;0.96;79.87;96702.69;5015764;28;19928;-79
2022/01/31 10:08:27;;;;;;;;;;;;;;;1.04;79.52;96688.94;5015831;28;20364;-78
2022/01/31 10:11:00;;;;;;;;;;;;;;;1.11;78.92;96695.66;5015665;28;19921;-79
2022/01/31 10:16:30;;;;;;;;;;;;;;;1.24;77.88;96692.06;5028812;28;19925;-79
2022/01/31 10:19:03;;;;;;;;;;;;;;;1.31;78.01;96683.44;5016026;28;20300;-79
2022/01/31 10:21:29;;;;;;;;;;;;;;;1.46;78.01;96688.28;5015651;28;20008;-79
2022/01/31 10:23:54;;;;;;;;;;;;;;;1.60;77.46;96677.00;5015482;28;20009;-80
2022/01/31 10:26:29;;;;;;;;;;;;;;;1.61;75.23;96671.91;5015605;28;19921;-80
2022/01/31 10:29:11;;;;;;;;;;;;;;;1.61;75.06;96676.19;5015745;28;19917;-79
2022/01/31 10:31:36;;;;;;;;;;;;;;;1.62;75.29;96668.47;5047392;28;19925;-80
2022/01/31 10:34:12;;;;;;;;;;;;;;;1.63;75.92;96671.88;5030744;28;19980;-79
2022/01/31 10:36:38;;;;;;;;;;;;;;;1.62;75.92;96670.19;5030592;28;19917;-80
2022/01/31 10:39:12;;;;;;;;;;;;;;;1.60;75.94;96666.78;5015179;28;19913;-79
2022/01/31 10:52:22;;;;;;;;;;;;;;;1.33;75.25;96658.75;5041953;28;19917;-79
2022/01/31 10:54:52;;;;;;;;;;;;;;;1.30;75.20;96655.38;5014990;28;19913;-79
2022/01/31 10:57:21;;;;;;;;;;;;;;;1.25;75.81;96646.09;5013764;28;19926;-78
2022/01/31 10:59:47;;;;;;;;;;;;;;;1.20;75.83;96644.47;5046766;28;19928;-78
2022/01/31 11:02:15;;;;;;;;;;;;;;;1.20;76.39;96650.41;5014918;28;19924;-79
2022/01/31 11:04:40;;;;;;;;;;;;;;;1.14;75.82;96644.53;5046015;28;19939;-79
2022/01/31 11:07:08;;;;;;;;;;;;;;;1.15;76.17;96641.16;5014803;28;19917;-79
2022/01/31 11:09:33;;;;;;;;;;;;;;;1.11;75.46;96645.44;5029779;28;19917;-78
2022/01/31 11:11:59;;;;;;;;;;;;;;;1.14;76.46;96645.38;5046707;28;19924;-79
2022/01/31 11:14:26;;;;;;;;;;;;;;;1.16;76.19;96642.81;5046564;28;19913;-80
2022/01/31 11:16:51;;;;;;;;;;;;;;;1.15;76.19;96641.16;5014707;28;19917;-81
2022/01/31 11:19:23;;;;;;;;;;;;;;;1.15;76.22;96641.16;5014763;28;19920;-82
2022/01/31 11:21:49;;;;;;;;;;;;;;;1.02;75.25;96631.13;5013602;28;20012;-78
2022/01/31 11:24:19;;;;;;;;;;;;;;;1.04;75.83;96643.84;5014598;28;19920;-79
2022/01/31 11:26:49;;;;;;;;;;;;;;;1.06;76.26;96641.28;5046103;28;19963;-78
2022/01/31 11:29:15;;;;;;;;;;;;;;;1.08;76.38;96639.53;5013578;28;20395;-80
2022/01/31 11:31:40;;;;;;;;;;;;;;;1.07;76.84;96637.88;5046302;28;19921;-79
2022/01/31 11:34:06;;;;;;;;;;;;;;;1.01;75.73;96642.19;5045912;28;20333;-79
2022/01/31 11:36:35;;;;;;;;;;;;;;;1.03;76.52;96642.16;5046280;28;19917;-82
2022/01/31 11:39:02;;;;;;;;;;;;;;;1.04;76.50;96637.91;5045955;28;19939;-78
2022/01/31 11:41:27;;;;;;;;;;;;;;;0.99;75.88;96645.63;5046004;28;19917;-78
2022/01/31 11:44:01;;;;;;;;;;;;;;;0.98;75.85;96641.41;5014061;28;19981;-80
2022/01/31 11:46:27;;;;;;;;;;;;;;;0.97;75.23;96638.00;5046037;28;19917;-79
2022/01/31 11:48:52;;;;;;;;;;;;;;;0.98;75.33;96642.22;5046224;28;20388;-79
2022/01/31 11:51:18;;;;;;;;;;;;;;;0.91;74.90;96638.06;5013670;28;19936;-82
2022/01/31 11:53:44;;;;;;;;;;;;;;;0.93;76.02;96641.47;5045836;28;19917;-80
2022/01/31 11:56:20;;;;;;;;;;;;;;;0.93;75.88;96635.50;5045091;28;19967;-79
2022/01/31 11:58:47;;;;;;;;;;;;;;;0.87;75.33;96636.44;5013520;28;19948;-78
2022/01/31 12:01:13;;;;;;;;;;;;;;;0.85;76.07;96638.16;5045371;28;19913;-79
2022/01/31 12:03:52;;;;;;;;;;;;;;;0.85;75.52;96640.72;5013902;28;19924;-78
2022/01/31 12:06:21;;;;;;;;;;;;;;;0.88;75.94;96637.28;5028442;28;19956;-79
2022/01/31 12:08:49;;;;;;;;;;;;;;;0.87;76.12;96638.13;5013258;28;19995;-78
2022/01/31 12:11:22;;;;;;;;;;;;;;;0.92;76.81;96634.69;5028324;28;20431;-78
2022/01/31 12:13:50;;;;;;;;;;;;;;;0.91;76.40;96638.06;5045091;28;20381;-81
2022/01/31 12:22:09;;;;;;;;;;;;;;;0.92;76.62;96637.22;5013296;28;19971;-78
2022/01/31 12:24:37;;;;;;;;;;;;;;;0.95;76.88;96634.59;5044095;28;19913;-79
2022/01/31 12:27:09;;;;;;;;;;;;;;;0.97;76.92;96632.91;5013090;28;20398;-78
2022/01/31 12:29:36;;;;;;;;;;;;;;;0.99;77.49;96630.31;5013199;28;19964;-79
2022/01/31 12:32:15;;;;;;;;;;;;;;;1.01;78.30;96637.09;5013411;28;20367;-79
2022/01/31 12:34:53;;;;;;;;;;;;;;;0.99;77.53;96633.69;5012741;28;19917;-79
2022/01/31 12:37:34;;;;;;;;;;;;;;;0.95;78.36;96633.78;5045121;28;19967;-78
2022/01/31 12:40:06;;;;;;;;;;;;;;;0.97;78.98;96634.59;5044579;28;19956;-78
2022/01/31 12:42:58;;;;;;;;;;;;;;;0.93;79.05;96633.81;5044499;28;20399;-78
2022/01/31 12:45:26;;;;;;;;;;;;;;;0.97;80.04;96632.91;5012975;28;19917;-79
2022/01/31 12:48:15;;;;;;;;;;;;;;;0.94;79.73;96632.94;5013099;28;19913;-80
2022/01/31 12:50:53;;;;;;;;;;;;;;;0.92;80.24;96634.69;5044399;28;19932;-80
2022/01/31 12:53:41;;;;;;;;;;;;;;;0.89;80.18;96628.75;5044574;28;20299;-81
2022/01/31 12:56:08;;;;;;;;;;;;;;;0.86;81.35;96624.53;5044745;28;20335;-80
2022/01/31 12:58:34;;;;;;;;;;;;;;;0.83;81.59;96626.31;5012497;28;19914;-79
2022/01/31 13:01:16;;;;;;;;;;;;;;;0.82;82.22;96622.88;5044549;28;19917;-79
2022/01/31 13:03:44;;;;;;;;;;;;;;;0.75;81.61;96632.34;5012238;28;19921;-79
2022/01/31 13:06:28;;;;;;;;;;;;;;;0.77;82.04;96624.66;5027549;28;19928;-78
2022/01/31 13:08:54;;;;;;;;;;;;;;;0.75;82.35;96631.50;5012625;28;20033;-80
2022/01/31 13:11:19;;;;;;;;;;;;;;;0.68;82.38;96629.91;5012602;28;20020;-80
2022/01/31 13:13:45;;;;;;;;;;;;;;;0.68;82.93;96630.75;5011576;28;19951;-79
2022/01/31 13:16:11;;;;;;;;;;;;;;;0.71;83.46;96629.88;5027768;28;19913;-80
2022/01/31 13:18:37;;;;;;;;;;;;;;;0.61;82.45;96634.25;5044314;28;19921;-79
2022/01/31 13:21:04;;;;;;;;;;;;;;;0.60;83.83;96629.19;5028102;28;19920;-78
2022/01/31 13:23:30;;;;;;;;;;;;;;;0.63;84.11;96626.56;5044402;28;19917;-79
2022/01/31 13:25:56;;;;;;;;;;;;;;;0.65;84.19;96620.59;5012522;28;20272;-79